createdAt,value
2016-11-26T00:00:15.613Z,0
2016-11-26T00:01:28.768Z,0
2016-11-26T00:02:42.333Z,0
2016-11-26T00:03:55.927Z,0
2016-11-26T00:05:09.532Z,0
2016-11-26T00:06:23.137Z,0
2016-11-26T00:07:38.308Z,0
2016-11-26T00:08:51.887Z,0
2016-11-26T00:10:04.966Z,0
2016-11-26T00:11:17.747Z,0
2016-11-26T00:12:31.286Z,0
2016-11-26T00:13:44.810Z,0
2016-11-26T00:14:57.837Z,0
2016-11-26T00:16:11.399Z,0
2016-11-26T00:17:24.509Z,0
2016-11-26T00:18:38.154Z,0
2016-11-26T00:19:51.745Z,0
2016-11-26T00:21:04.381Z,0
2016-11-26T00:22:48.509Z,0
2016-11-26T00:24:01.809Z,0
2016-11-26T00:25:15.432Z,0
2016-11-26T00:26:27.902Z,0
2016-11-26T00:27:41.421Z,0
2016-11-26T00:28:54.467Z,0
2016-11-26T00:30:08.043Z,0
2016-11-26T00:31:21.629Z,0
2016-11-26T00:32:34.853Z,0
2016-11-26T00:33:47.382Z,0
2016-11-26T00:35:00.922Z,0
2016-11-26T00:36:14.084Z,0
2016-11-26T00:37:27.154Z,0
2016-11-26T00:38:40.875Z,0
2016-11-26T00:39:53.876Z,0
2016-11-26T00:41:07.508Z,0
2016-11-26T00:42:20.581Z,0
2016-11-26T00:43:34.173Z,0
2016-11-26T00:44:47.273Z,0
2016-11-26T00:46:00.885Z,0
2016-11-26T00:47:14.470Z,0
2016-11-26T00:48:27.484Z,0
2016-11-26T00:49:55.006Z,0
2016-11-26T00:51:08.122Z,0
2016-11-26T00:52:20.943Z,0
2016-11-26T00:53:34.034Z,0
2016-11-26T00:54:47.618Z,0
2016-11-26T00:56:00.795Z,0
2016-11-26T00:57:14.392Z,0
2016-11-26T00:58:27.547Z,0
2016-11-26T00:59:40.632Z,0
2016-11-26T01:00:53.663Z,0
2016-11-26T01:02:07.270Z,0
2016-11-26T01:03:20.858Z,0
2016-11-26T01:04:34.451Z,0
2016-11-26T01:05:47.412Z,0
2016-11-26T01:07:00.703Z,0
2016-11-26T01:08:13.853Z,0
2016-11-26T01:09:27.470Z,0
2016-11-26T01:10:41.140Z,0
2016-11-26T01:11:54.234Z,0
2016-11-26T01:13:07.903Z,0
2016-11-26T01:14:21.476Z,0
2016-11-26T01:15:34.807Z,0
2016-11-26T01:16:48.365Z,0
2016-11-26T01:18:01.936Z,0
2016-11-26T01:19:15.500Z,0
2016-11-26T01:20:28.300Z,0
2016-11-26T01:21:41.929Z,0
2016-11-26T01:22:55.494Z,0
2016-11-26T01:24:09.145Z,0
2016-11-26T01:25:22.164Z,0
2016-11-26T01:26:35.203Z,0
2016-11-26T01:27:48.843Z,0
2016-11-26T01:29:02.443Z,0
2016-11-26T01:30:16.031Z,0
2016-11-26T01:31:29.064Z,0
2016-11-26T01:32:42.108Z,0
2016-11-26T01:33:55.681Z,0
2016-11-26T01:35:09.352Z,0
2016-11-26T01:36:22.920Z,0
2016-11-26T01:37:35.451Z,0
2016-11-26T01:38:48.992Z,0
2016-11-26T01:40:02.533Z,0
2016-11-26T01:41:16.085Z,0
2016-11-26T01:42:28.807Z,0
2016-11-26T01:43:42.345Z,0
2016-11-26T01:44:55.375Z,0
2016-11-26T01:46:08.936Z,0
2016-11-26T01:47:22.517Z,0
2016-11-26T01:48:35.538Z,0
2016-11-26T01:49:49.132Z,0
2016-11-26T01:51:02.675Z,0
2016-11-26T01:52:16.229Z,0
2016-11-26T01:53:29.781Z,0
2016-11-26T01:54:43.378Z,0
2016-11-26T01:55:56.462Z,0
2016-11-26T01:57:09.967Z,0
2016-11-26T01:58:23.527Z,0
2016-11-26T01:59:37.127Z,0
2016-11-26T02:00:50.677Z,0
2016-11-26T02:02:04.208Z,0
2016-11-26T02:03:17.256Z,0
2016-11-26T02:05:01.948Z,0
2016-11-26T02:06:15.534Z,0
2016-11-26T02:07:29.129Z,0
2016-11-26T02:08:42.754Z,0
2016-11-26T02:09:56.059Z,0
2016-11-26T02:11:09.617Z,0
2016-11-26T02:12:53.778Z,0
2016-11-26T02:14:07.307Z,0
2016-11-26T02:15:20.904Z,0
2016-11-26T02:16:34.216Z,0
2016-11-26T02:17:47.814Z,0
2016-11-26T02:19:01.384Z,0
2016-11-26T02:20:14.928Z,0
2016-11-26T02:21:28.177Z,0
2016-11-26T02:22:40.976Z,0
2016-11-26T02:23:54.522Z,0
2016-11-26T02:25:07.557Z,0
2016-11-26T02:26:21.164Z,0
2016-11-26T02:27:34.905Z,0
2016-11-26T02:28:47.995Z,0
2016-11-26T02:30:01.780Z,0
2016-11-26T02:31:15.341Z,0
2016-11-26T02:32:28.362Z,0
2016-11-26T02:33:41.471Z,0
2016-11-26T02:34:54.520Z,0
2016-11-26T02:36:08.147Z,0
2016-11-26T02:37:21.245Z,0
2016-11-26T02:38:34.914Z,0
2016-11-26T02:39:48.493Z,0
2016-11-26T02:41:01.837Z,0
2016-11-26T02:42:14.849Z,0
2016-11-26T02:43:28.446Z,0
2016-11-26T02:44:41.994Z,0
2016-11-26T02:45:55.640Z,0
2016-11-26T02:47:08.706Z,0
2016-11-26T02:48:22.300Z,0
2016-11-26T02:49:35.393Z,0
2016-11-26T02:50:48.557Z,0
2016-11-26T02:52:02.134Z,0
2016-11-26T02:53:15.744Z,0
2016-11-26T02:54:29.315Z,0
2016-11-26T02:55:42.945Z,0
2016-11-26T02:56:56.042Z,0
2016-11-26T02:58:09.147Z,0
2016-11-26T02:59:22.279Z,0
2016-11-26T03:00:34.837Z,0
2016-11-26T03:01:47.869Z,0
2016-11-26T03:03:01.676Z,0
2016-11-26T03:04:14.749Z,0
2016-11-26T03:05:58.927Z,0
2016-11-26T03:07:12.520Z,0
2016-11-26T03:08:25.583Z,0
2016-11-26T03:09:38.694Z,0
2016-11-26T03:10:52.253Z,0
2016-11-26T03:12:05.826Z,0
2016-11-26T03:13:19.382Z,0
2016-11-26T03:14:32.723Z,0
2016-11-26T03:15:46.292Z,0
2016-11-26T03:16:59.891Z,0
2016-11-26T03:18:13.524Z,0
2016-11-26T03:19:27.162Z,0
2016-11-26T03:20:40.786Z,0
2016-11-26T03:21:54.385Z,0
2016-11-26T03:23:08.035Z,0
2016-11-26T03:24:21.626Z,0
2016-11-26T03:25:34.760Z,0
2016-11-26T03:26:48.362Z,0
2016-11-26T03:28:01.972Z,0
2016-11-26T03:29:15.234Z,0
2016-11-26T03:30:28.317Z,0
2016-11-26T03:31:41.660Z,0
2016-11-26T03:32:55.337Z,0
2016-11-26T03:34:08.394Z,0
2016-11-26T03:35:21.431Z,0
2016-11-26T03:37:06.121Z,0
2016-11-26T03:38:19.177Z,0
2016-11-26T03:39:32.818Z,0
2016-11-26T03:40:46.413Z,0
2016-11-26T03:41:59.927Z,0
2016-11-26T03:44:58.194Z,0
2016-11-26T03:46:11.803Z,0
2016-11-26T03:47:24.861Z,0
2016-11-26T03:48:38.453Z,0
2016-11-26T03:49:52.124Z,0
2016-11-26T03:51:05.706Z,0
2016-11-26T03:52:19.343Z,0
2016-11-26T03:53:32.863Z,0
2016-11-26T03:54:46.401Z,0
2016-11-26T03:55:59.419Z,0
2016-11-26T03:57:12.471Z,0
2016-11-26T03:58:26.095Z,0
2016-11-26T04:01:23.381Z,0
2016-11-26T04:02:36.495Z,0
2016-11-26T04:03:49.271Z,0
2016-11-26T04:05:02.297Z,0
2016-11-26T04:06:15.912Z,0
2016-11-26T04:07:28.926Z,0
2016-11-26T04:08:42.441Z,0
2016-11-26T04:10:27.202Z,0
2016-11-26T04:11:40.958Z,0
2016-11-26T04:12:54.609Z,0
2016-11-26T04:14:07.675Z,0
2016-11-26T04:15:20.685Z,0
2016-11-26T04:16:34.265Z,0
2016-11-26T04:17:47.855Z,0
2016-11-26T04:19:32.592Z,0
2016-11-26T04:20:46.200Z,0
2016-11-26T04:21:59.813Z,0
2016-11-26T04:23:12.895Z,0
2016-11-26T04:24:26.395Z,0
2016-11-26T04:25:39.442Z,0
2016-11-26T04:26:52.699Z,0
2016-11-26T04:28:06.289Z,0
2016-11-26T04:29:19.861Z,0
2016-11-26T04:30:33.468Z,0
2016-11-26T04:31:46.566Z,0
2016-11-26T04:32:59.085Z,0
2016-11-26T04:34:12.632Z,0
2016-11-26T04:35:26.247Z,0
2016-11-26T04:36:39.934Z,0
2016-11-26T04:37:53.540Z,0
2016-11-26T04:39:07.134Z,0
2016-11-26T04:40:20.744Z,0
2016-11-26T04:41:34.375Z,0
2016-11-26T04:42:47.469Z,0
2016-11-26T04:44:00.746Z,0
2016-11-26T04:45:13.820Z,0
2016-11-26T04:46:26.875Z,0
2016-11-26T04:47:40.518Z,0
2016-11-26T04:48:54.145Z,0
2016-11-26T04:50:07.196Z,0
2016-11-26T04:51:20.790Z,0
2016-11-26T04:52:34.520Z,0
2016-11-26T04:53:47.591Z,0
2016-11-26T04:55:01.180Z,0
2016-11-26T04:56:14.777Z,0
2016-11-26T04:57:28.442Z,0
2016-11-26T04:58:41.509Z,0
2016-11-26T04:59:55.069Z,0
2016-11-26T05:01:08.736Z,0
2016-11-26T05:02:21.785Z,0
2016-11-26T05:03:35.404Z,0
2016-11-26T05:04:48.686Z,0
2016-11-26T05:06:02.309Z,0
2016-11-26T05:07:15.857Z,0
2016-11-26T05:08:29.429Z,0
2016-11-26T05:09:43.112Z,0
2016-11-26T05:10:56.677Z,0
2016-11-26T05:12:10.298Z,0
2016-11-26T05:13:23.318Z,0
2016-11-26T05:14:37.034Z,0
2016-11-26T05:15:50.635Z,0
2016-11-26T05:17:03.763Z,0
2016-11-26T05:18:17.361Z,0
2016-11-26T05:19:31.055Z,0
2016-11-26T05:20:44.109Z,0
2016-11-26T05:21:56.098Z,0
2016-11-26T05:23:09.396Z,0
2016-11-26T05:24:22.481Z,0
2016-11-26T05:25:36.115Z,0
2016-11-26T05:26:49.213Z,0
2016-11-26T05:28:02.859Z,0
2016-11-26T05:29:15.917Z,0
2016-11-26T05:30:29.563Z,0
2016-11-26T05:31:43.223Z,0
2016-11-26T05:32:56.853Z,0
2016-11-26T05:34:10.446Z,0
2016-11-26T05:35:24.074Z,0
2016-11-26T05:36:37.629Z,0
2016-11-26T05:37:51.177Z,0
2016-11-26T05:39:04.954Z,0
2016-11-26T05:40:18.593Z,0
2016-11-26T05:41:32.223Z,0
2016-11-26T05:42:45.862Z,0
2016-11-26T05:43:59.441Z,0
2016-11-26T05:45:13.073Z,0
2016-11-26T05:46:26.649Z,0
2016-11-26T05:47:40.215Z,0
2016-11-26T05:48:53.839Z,0
2016-11-26T05:50:07.465Z,0
2016-11-26T05:51:21.040Z,0
2016-11-26T05:52:34.107Z,0
2016-11-26T05:53:47.684Z,0
2016-11-26T05:55:01.273Z,0
2016-11-26T05:56:13.879Z,0
2016-11-26T05:57:26.689Z,0
2016-11-26T05:58:39.809Z,0
2016-11-26T05:59:53.458Z,0
2016-11-26T06:01:06.534Z,0
2016-11-26T06:02:20.117Z,0
2016-11-26T06:03:33.675Z,0
2016-11-26T06:04:47.315Z,0
2016-11-26T06:06:00.992Z,0
2016-11-26T06:07:14.554Z,0
2016-11-26T06:08:28.215Z,0
2016-11-26T06:09:41.824Z,0
2016-11-26T06:10:55.384Z,0
2016-11-26T06:12:08.966Z,0
2016-11-26T06:13:22.019Z,0
2016-11-26T06:14:35.678Z,0
2016-11-26T06:15:49.278Z,0
2016-11-26T06:17:02.558Z,0
2016-11-26T06:18:15.640Z,0
2016-11-26T06:19:28.825Z,0
2016-11-26T06:20:41.935Z,0
2016-11-26T06:21:55.003Z,0
2016-11-26T06:23:08.585Z,0
2016-11-26T06:24:22.201Z,0
2016-11-26T06:25:35.761Z,0
2016-11-26T06:26:49.355Z,0
2016-11-26T06:28:02.955Z,0
2016-11-26T06:29:16.019Z,0
2016-11-26T06:30:29.637Z,0
2016-11-26T06:31:43.239Z,0
2016-11-26T06:32:56.877Z,0
2016-11-26T06:34:10.536Z,0
2016-11-26T06:35:54.731Z,0
2016-11-26T06:37:08.410Z,0
2016-11-26T06:38:22.007Z,0
2016-11-26T06:39:35.642Z,0
2016-11-26T06:40:48.669Z,0
2016-11-26T06:42:00.896Z,0
2016-11-26T06:43:14.461Z,0
2016-11-26T06:44:28.047Z,0
2016-11-26T06:45:41.177Z,0
2016-11-26T06:46:54.282Z,0
2016-11-26T06:48:07.980Z,0
2016-11-26T06:49:21.634Z,0
2016-11-26T06:50:35.293Z,0
2016-11-26T06:51:48.320Z,0
2016-11-26T06:53:01.968Z,0
2016-11-26T06:54:15.610Z,0
2016-11-26T06:55:29.112Z,0
2016-11-26T06:56:42.476Z,0
2016-11-26T06:57:55.519Z,0
2016-11-26T06:59:09.191Z,0
2016-11-26T07:00:22.822Z,0
2016-11-26T07:01:35.897Z,0
2016-11-26T07:02:48.996Z,0
2016-11-26T07:04:02.656Z,0
2016-11-26T07:05:15.243Z,0
2016-11-26T07:06:28.895Z,0
2016-11-26T07:07:42.512Z,0
2016-11-26T07:08:56.112Z,0
2016-11-26T07:10:09.739Z,0
2016-11-26T07:11:21.211Z,0
2016-11-26T07:12:34.245Z,0
2016-11-26T07:13:47.876Z,0
2016-11-26T07:15:01.443Z,0
2016-11-26T07:16:15.124Z,0
2016-11-26T07:17:27.636Z,0
2016-11-26T07:18:40.745Z,0
2016-11-26T07:19:53.895Z,0
2016-11-26T07:21:07.432Z,0
2016-11-26T07:22:20.749Z,0
2016-11-26T07:23:34.371Z,0
2016-11-26T07:24:47.999Z,0
2016-11-26T07:26:01.579Z,0
2016-11-26T07:27:15.134Z,0
2016-11-26T07:28:28.836Z,0
2016-11-26T07:29:42.397Z,0
2016-11-26T07:30:55.981Z,0
2016-11-26T07:32:09.646Z,0
2016-11-26T07:33:23.308Z,0
2016-11-26T07:34:36.901Z,0
2016-11-26T07:35:50.149Z,0
2016-11-26T07:37:03.304Z,0
2016-11-26T07:38:16.841Z,0
2016-11-26T07:39:30.475Z,0
2016-11-26T07:40:43.558Z,0
2016-11-26T07:41:56.901Z,0
2016-11-26T07:43:10.492Z,0
2016-11-26T07:44:24.081Z,0
2016-11-26T07:45:37.666Z,0
2016-11-26T07:46:50.665Z,0
2016-11-26T07:48:04.220Z,0
2016-11-26T07:49:17.815Z,0
2016-11-26T07:50:30.633Z,0
2016-11-26T07:51:43.729Z,0
2016-11-26T07:52:57.311Z,0
2016-11-26T07:54:10.959Z,0
2016-11-26T07:55:23.982Z,0
2016-11-26T07:56:37.639Z,0
2016-11-26T07:57:51.209Z,0
2016-11-26T07:59:04.280Z,0
2016-11-26T08:00:17.901Z,0
2016-11-26T08:01:30.956Z,0
2016-11-26T08:02:44.166Z,0
2016-11-26T08:03:57.729Z,0
2016-11-26T08:05:11.352Z,0
2016-11-26T08:06:24.470Z,0
2016-11-26T08:07:38.170Z,0
2016-11-26T08:08:51.205Z,0
2016-11-26T08:10:04.950Z,0
2016-11-26T08:11:18.545Z,0
2016-11-26T08:12:32.139Z,0
2016-11-26T08:13:45.245Z,0
2016-11-26T08:14:58.881Z,0
2016-11-26T08:16:13.161Z,0
2016-11-26T08:17:26.844Z,0
2016-11-26T08:18:40.493Z,0
2016-11-26T08:19:53.034Z,0
2016-11-26T08:21:06.618Z,0
2016-11-26T08:22:20.309Z,0
2016-11-26T08:23:33.093Z,0
2016-11-26T08:24:46.693Z,0
2016-11-26T08:26:00.313Z,0
2016-11-26T08:27:13.667Z,0
2016-11-26T08:28:27.332Z,0
2016-11-26T08:29:40.964Z,0
2016-11-26T08:30:54.071Z,0
2016-11-26T08:32:07.686Z,0
2016-11-26T08:33:20.758Z,0
2016-11-26T08:34:34.369Z,0
2016-11-26T08:35:47.923Z,0
2016-11-26T08:37:01.027Z,0
2016-11-26T08:38:14.697Z,0
2016-11-26T08:39:27.167Z,0
2016-11-26T08:40:40.752Z,0
2016-11-26T08:41:54.385Z,0
2016-11-26T08:43:07.684Z,0
2016-11-26T08:44:21.264Z,0
2016-11-26T08:45:35.028Z,5
2016-11-26T08:46:47.050Z,5
2016-11-26T08:47:59.572Z,5
2016-11-26T08:49:13.173Z,5
2016-11-26T08:50:26.190Z,5
2016-11-26T08:51:39.767Z,5
2016-11-26T08:52:53.347Z,5
2016-11-26T08:54:06.934Z,5
2016-11-26T08:55:20.528Z,5
2016-11-26T08:56:34.170Z,5
2016-11-26T08:57:47.749Z,5
2016-11-26T08:59:00.805Z,5
2016-11-26T09:00:14.389Z,5
2016-11-26T09:01:27.489Z,10
2016-11-26T09:02:40.036Z,10
2016-11-26T09:03:53.585Z,10
2016-11-26T09:05:06.698Z,10
2016-11-26T09:06:19.777Z,10
2016-11-26T09:07:33.419Z,10
2016-11-26T09:08:46.739Z,10
2016-11-26T09:10:00.331Z,10
2016-11-26T09:11:13.297Z,10
2016-11-26T09:12:26.864Z,10
2016-11-26T09:13:40.245Z,10
2016-11-26T09:14:53.331Z,10
2016-11-26T09:16:06.348Z,10
2016-11-26T09:17:19.410Z,10
2016-11-26T09:18:33.098Z,15
2016-11-26T09:19:46.694Z,15
2016-11-26T09:21:00.224Z,15
2016-11-26T09:22:13.810Z,15
2016-11-26T09:23:27.535Z,15
2016-11-26T09:24:40.653Z,15
2016-11-26T09:25:54.233Z,15
2016-11-26T09:27:07.775Z,15
2016-11-26T09:28:21.386Z,15
2016-11-26T09:29:34.633Z,15
2016-11-26T09:30:48.257Z,15
2016-11-26T09:32:02.008Z,20
2016-11-26T09:33:15.045Z,20
2016-11-26T09:34:28.605Z,20
2016-11-26T09:35:42.190Z,20
2016-11-26T09:36:55.569Z,20
2016-11-26T09:38:09.139Z,20
2016-11-26T09:39:22.787Z,20
2016-11-26T09:40:36.384Z,20
2016-11-26T09:41:49.995Z,20
2016-11-26T09:43:02.314Z,25
2016-11-26T09:44:15.445Z,25
2016-11-26T09:45:28.916Z,25
2016-11-26T09:46:42.498Z,25
2016-11-26T09:47:56.015Z,25
2016-11-26T09:49:09.686Z,25
2016-11-26T09:50:23.365Z,25
2016-11-26T09:51:36.512Z,25
2016-11-26T09:52:49.602Z,25
2016-11-26T09:54:02.657Z,20
2016-11-26T09:55:15.180Z,20
2016-11-26T09:56:28.719Z,20
2016-11-26T09:57:42.336Z,20
2016-11-26T09:58:54.867Z,20
2016-11-26T10:00:08.143Z,20
2016-11-26T10:01:21.757Z,20
2016-11-26T10:02:33.725Z,20
2016-11-26T10:03:47.352Z,20
2016-11-26T10:05:01.021Z,25
2016-11-26T10:06:14.661Z,25
2016-11-26T10:07:59.396Z,25
2016-11-26T10:09:13.036Z,25
2016-11-26T10:10:25.536Z,25
2016-11-26T10:11:39.153Z,25
2016-11-26T10:12:52.189Z,25
2016-11-26T10:14:05.822Z,25
2016-11-26T10:15:19.448Z,25
2016-11-26T10:16:33.037Z,25
2016-11-26T10:17:46.624Z,25
2016-11-26T10:19:00.257Z,30
2016-11-26T10:20:13.812Z,30
2016-11-26T10:21:27.513Z,30
2016-11-26T10:22:41.217Z,30
2016-11-26T10:23:54.520Z,30
2016-11-26T10:25:08.300Z,30
2016-11-26T10:26:21.421Z,30
2016-11-26T10:27:35.237Z,35
2016-11-26T10:28:48.836Z,35
2016-11-26T10:30:02.475Z,35
2016-11-26T10:31:16.009Z,35
2016-11-26T10:32:29.054Z,35
2016-11-26T10:33:42.693Z,35
2016-11-26T10:34:55.841Z,40
2016-11-26T10:36:09.385Z,40
2016-11-26T10:37:22.578Z,40
2016-11-26T10:38:36.131Z,40
2016-11-26T10:39:49.743Z,40
2016-11-26T10:41:03.286Z,35
2016-11-26T10:42:16.451Z,35
2016-11-26T10:43:29.805Z,35
2016-11-26T10:44:42.875Z,40
2016-11-26T10:45:55.914Z,40
2016-11-26T10:47:09.582Z,40
2016-11-26T10:48:23.242Z,40
2016-11-26T10:49:36.306Z,40
2016-11-26T10:50:49.418Z,40
2016-11-26T10:52:02.969Z,40
2016-11-26T10:53:16.580Z,40
2016-11-26T10:55:00.761Z,40
2016-11-26T10:56:14.479Z,40
2016-11-26T10:57:27.991Z,40
2016-11-26T10:58:41.572Z,40
2016-11-26T10:59:55.151Z,40
2016-11-26T11:01:08.777Z,40
2016-11-26T11:02:21.887Z,40
2016-11-26T11:03:35.564Z,40
2016-11-26T11:04:48.583Z,40
2016-11-26T11:06:02.218Z,40
2016-11-26T11:07:15.318Z,40
2016-11-26T11:08:27.851Z,40
2016-11-26T11:09:41.447Z,45
2016-11-26T11:10:55.011Z,45
2016-11-26T11:12:08.707Z,45
2016-11-26T11:13:22.340Z,45
2016-11-26T11:14:35.930Z,50
2016-11-26T11:15:49.565Z,50
2016-11-26T11:17:02.598Z,50
2016-11-26T11:18:16.190Z,50
2016-11-26T11:19:29.848Z,55
2016-11-26T11:20:43.406Z,55
2016-11-26T11:21:57.056Z,55
2016-11-26T11:23:10.630Z,55
2016-11-26T11:24:23.743Z,50
2016-11-26T11:25:37.343Z,50
2016-11-26T11:26:50.975Z,50
2016-11-26T11:28:03.990Z,45
2016-11-26T11:29:17.565Z,45
2016-11-26T11:30:31.164Z,45
2016-11-26T11:31:44.750Z,40
2016-11-26T11:32:58.355Z,40
2016-11-26T11:34:11.431Z,40
2016-11-26T11:35:56.098Z,40
2016-11-26T11:37:09.698Z,45
2016-11-26T11:38:23.376Z,45
2016-11-26T11:39:36.511Z,45
2016-11-26T11:40:49.335Z,45
2016-11-26T11:42:02.983Z,45
2016-11-26T11:43:16.631Z,45
2016-11-26T11:44:30.270Z,45
2016-11-26T11:45:43.893Z,45
2016-11-26T11:46:56.373Z,45
2016-11-26T11:48:09.909Z,50
2016-11-26T11:49:22.970Z,50
2016-11-26T11:50:36.617Z,50
2016-11-26T11:51:50.179Z,55
2016-11-26T11:53:03.259Z,55
2016-11-26T11:54:16.804Z,55
2016-11-26T11:55:30.429Z,55
2016-11-26T11:56:43.547Z,50
2016-11-26T11:57:57.145Z,50
2016-11-26T11:59:10.766Z,50
2016-11-26T12:00:24.313Z,50
2016-11-26T12:01:37.978Z,50
2016-11-26T12:02:51.611Z,50
2016-11-26T12:04:05.129Z,50
2016-11-26T12:05:18.726Z,50
2016-11-26T12:06:32.001Z,50
2016-11-26T12:07:45.581Z,50
2016-11-26T12:08:59.162Z,45
2016-11-26T12:10:12.778Z,45
2016-11-26T12:11:25.870Z,45
2016-11-26T12:12:38.919Z,45
2016-11-26T12:13:51.946Z,45
2016-11-26T12:15:05.262Z,45
2016-11-26T12:16:18.592Z,45
2016-11-26T12:17:31.729Z,45
2016-11-26T12:19:16.443Z,45
2016-11-26T12:20:30.025Z,40
2016-11-26T12:21:43.630Z,40
2016-11-26T12:23:28.291Z,40
2016-11-26T12:24:41.899Z,40
2016-11-26T12:25:55.549Z,40
2016-11-26T12:27:08.546Z,40
2016-11-26T12:28:22.107Z,40
2016-11-26T12:29:35.639Z,40
2016-11-26T12:30:49.228Z,40
2016-11-26T12:32:02.844Z,40
2016-11-26T12:33:16.539Z,40
2016-11-26T12:34:30.186Z,40
2016-11-26T12:35:42.956Z,40
2016-11-26T12:36:56.530Z,40
2016-11-26T12:38:10.110Z,40
2016-11-26T12:39:23.759Z,40
2016-11-26T12:40:37.432Z,40
2016-11-26T12:41:51.071Z,40
2016-11-26T12:43:04.702Z,40
2016-11-26T12:44:17.791Z,45
2016-11-26T12:45:30.908Z,45
2016-11-26T12:46:44.611Z,40
2016-11-26T12:47:58.334Z,40
2016-11-26T12:49:11.428Z,40
2016-11-26T12:50:23.999Z,45
2016-11-26T12:51:37.635Z,45
2016-11-26T12:52:49.906Z,45
2016-11-26T12:54:02.427Z,45
2016-11-26T12:55:16.110Z,45
2016-11-26T12:56:29.148Z,50
2016-11-26T12:57:42.250Z,50
2016-11-26T12:59:26.963Z,50
2016-11-26T13:00:40.581Z,55
2016-11-26T13:01:54.260Z,55
2016-11-26T13:03:07.837Z,55
2016-11-26T13:04:20.909Z,60
2016-11-26T13:05:34.573Z,65
2016-11-26T13:06:48.195Z,70
2016-11-26T13:08:01.779Z,75
2016-11-26T13:09:15.418Z,80
2016-11-26T13:10:29.135Z,80
2016-11-26T13:11:42.212Z,75
2016-11-26T13:13:26.986Z,75
2016-11-26T13:15:11.661Z,70
2016-11-26T13:16:24.739Z,65
2016-11-26T13:17:37.757Z,65
2016-11-26T13:18:50.302Z,65
2016-11-26T13:20:03.854Z,60
2016-11-26T13:21:17.174Z,55
2016-11-26T13:22:30.273Z,55
2016-11-26T13:23:43.909Z,55
2016-11-26T13:24:57.527Z,50
2016-11-26T13:26:10.540Z,55
2016-11-26T13:27:24.110Z,55
2016-11-26T13:28:36.650Z,60
2016-11-26T13:29:49.209Z,60
2016-11-26T13:31:02.276Z,60
2016-11-26T13:32:15.906Z,60
2016-11-26T13:33:29.069Z,60
2016-11-26T13:34:42.683Z,60
2016-11-26T13:35:55.952Z,55
2016-11-26T13:37:09.544Z,55
2016-11-26T13:38:23.181Z,55
2016-11-26T13:39:36.284Z,50
2016-11-26T13:40:49.930Z,55
2016-11-26T13:42:03.576Z,60
2016-11-26T13:43:16.703Z,55
2016-11-26T13:44:30.274Z,60
2016-11-26T13:45:43.413Z,65
2016-11-26T13:46:56.551Z,60
2016-11-26T13:48:10.105Z,65
2016-11-26T13:49:23.258Z,75
2016-11-26T13:50:36.386Z,80
2016-11-26T13:51:50.007Z,90
2016-11-26T13:53:03.036Z,95
2016-11-26T13:54:16.604Z,110
2016-11-26T13:55:29.641Z,125
2016-11-26T13:56:42.786Z,130
2016-11-26T13:57:56.482Z,145
2016-11-26T13:59:09.800Z,155
2016-11-26T14:00:23.367Z,165
2016-11-26T14:01:35.924Z,170
2016-11-26T14:02:48.994Z,170
2016-11-26T14:04:02.259Z,170
2016-11-26T14:05:15.364Z,175
2016-11-26T14:06:29.143Z,175
2016-11-26T14:07:42.835Z,175
2016-11-26T14:08:56.477Z,180
2016-11-26T14:10:09.304Z,185
2016-11-26T14:11:22.919Z,185
2016-11-26T14:12:36.523Z,190
2016-11-26T14:13:50.123Z,195
2016-11-26T14:15:03.787Z,190
2016-11-26T14:16:16.577Z,190
2016-11-26T14:17:30.109Z,195
2016-11-26T14:18:43.694Z,195
2016-11-26T14:20:28.405Z,195
2016-11-26T14:21:41.474Z,200
2016-11-26T14:22:55.128Z,200
2016-11-26T14:24:08.111Z,200
2016-11-26T14:25:21.817Z,205
2016-11-26T14:26:35.369Z,210
2016-11-26T14:27:48.971Z,215
2016-11-26T14:29:02.621Z,215
2016-11-26T14:30:16.235Z,215
2016-11-26T14:31:29.881Z,220
2016-11-26T14:32:42.912Z,220
2016-11-26T14:33:56.470Z,225
2016-11-26T14:35:10.076Z,220
2016-11-26T14:36:23.747Z,220
2016-11-26T14:37:36.826Z,225
2016-11-26T14:38:50.410Z,230
2016-11-26T14:40:04.059Z,230
2016-11-26T14:41:17.692Z,235
2016-11-26T14:42:31.253Z,235
2016-11-26T14:43:44.866Z,235
2016-11-26T14:44:58.474Z,245
2016-11-26T14:46:12.091Z,245
2016-11-26T14:47:25.702Z,250
2016-11-26T14:48:38.816Z,255
2016-11-26T14:49:52.251Z,260
2016-11-26T14:51:05.428Z,255
2016-11-26T14:52:18.969Z,255
2016-11-26T14:53:32.339Z,250
2016-11-26T14:54:45.678Z,255
2016-11-26T14:55:59.182Z,260
2016-11-26T14:57:12.759Z,260
2016-11-26T14:58:26.083Z,265
2016-11-26T14:59:39.483Z,265
2016-11-26T15:00:53.025Z,275
2016-11-26T15:02:06.653Z,275
2016-11-26T15:03:20.321Z,275
2016-11-26T15:04:33.951Z,270
2016-11-26T15:05:46.519Z,275
2016-11-26T15:06:59.544Z,235
2016-11-26T15:08:12.575Z,270
2016-11-26T15:09:26.253Z,265
2016-11-26T15:10:39.877Z,245
2016-11-26T15:11:53.494Z,250
2016-11-26T15:13:06.592Z,265
2016-11-26T15:14:20.281Z,270
2016-11-26T15:15:33.950Z,275
2016-11-26T15:16:47.519Z,280
2016-11-26T15:18:01.139Z,280
2016-11-26T15:19:14.257Z,275
2016-11-26T15:20:27.864Z,285
2016-11-26T15:21:41.675Z,290
2016-11-26T15:22:55.224Z,285
2016-11-26T15:24:08.837Z,275
2016-11-26T15:25:22.444Z,280
2016-11-26T15:26:35.522Z,280
2016-11-26T15:27:49.276Z,280
2016-11-26T15:29:02.965Z,280
2016-11-26T15:30:16.017Z,280
2016-11-26T15:31:29.635Z,280
2016-11-26T15:32:43.299Z,280
2016-11-26T15:33:56.385Z,280
2016-11-26T15:35:10.015Z,285
2016-11-26T15:36:23.415Z,290
2016-11-26T15:37:37.000Z,290
2016-11-26T15:38:49.529Z,290
2016-11-26T15:40:02.922Z,270
2016-11-26T15:41:16.537Z,285
2016-11-26T15:42:29.577Z,265
2016-11-26T15:43:43.154Z,260
2016-11-26T15:44:56.731Z,205
2016-11-26T15:46:10.370Z,125
2016-11-26T15:47:23.972Z,290
2016-11-26T15:48:36.782Z,300
2016-11-26T15:49:50.385Z,195
2016-11-26T15:51:35.113Z,295
2016-11-26T15:52:48.703Z,290
2016-11-26T15:54:01.503Z,290
2016-11-26T15:55:15.111Z,290
2016-11-26T15:56:28.677Z,40
2016-11-26T15:57:41.493Z,40
2016-11-26T15:58:55.093Z,40
2016-11-26T16:00:08.695Z,45
2016-11-26T16:01:22.343Z,50
2016-11-26T16:02:35.455Z,60
2016-11-26T16:03:48.293Z,95
2016-11-26T16:05:01.900Z,85
2016-11-26T16:06:15.519Z,295
2016-11-26T16:07:28.318Z,305
2016-11-26T16:08:41.036Z,310
2016-11-26T16:09:54.616Z,305
2016-11-26T16:11:08.544Z,295
2016-11-26T16:12:21.984Z,295
2016-11-26T16:13:35.564Z,100
2016-11-26T16:14:49.107Z,65
2016-11-26T16:16:02.758Z,115
2016-11-26T16:17:15.897Z,65
2016-11-26T16:19:00.682Z,50
2016-11-26T16:20:14.345Z,45
2016-11-26T16:22:51.337Z,45
2016-11-26T16:24:04.495Z,120
2016-11-26T16:25:17.523Z,265
2016-11-26T16:26:30.607Z,265
2016-11-26T16:27:44.234Z,190
2016-11-26T16:28:57.890Z,255
2016-11-26T16:30:11.889Z,80
2016-11-26T16:31:25.028Z,150
2016-11-26T16:32:36.800Z,240
2016-11-26T16:33:50.450Z,290
2016-11-26T16:35:35.138Z,265
2016-11-26T16:36:48.513Z,265
2016-11-26T16:38:33.220Z,155
2016-11-26T16:39:46.830Z,85
2016-11-26T16:41:00.411Z,65
2016-11-26T16:42:13.512Z,65
2016-11-26T16:43:27.059Z,80
2016-11-26T16:44:40.719Z,270
2016-11-26T16:45:54.346Z,150
2016-11-26T16:47:07.897Z,70
2016-11-26T16:48:21.004Z,270
2016-11-26T16:49:34.687Z,260
2016-11-26T16:50:48.323Z,250
2016-11-26T16:52:01.947Z,260
2016-11-26T16:53:14.781Z,265
2016-11-26T16:54:28.407Z,265
2016-11-26T16:55:42.037Z,265
2016-11-26T16:56:55.102Z,260
2016-11-26T16:58:08.777Z,260
2016-11-26T16:59:21.866Z,260
2016-11-26T17:00:35.696Z,255
2016-11-26T17:01:49.277Z,95
2016-11-26T17:03:02.505Z,60
2016-11-26T17:04:15.850Z,55
2016-11-26T17:05:28.466Z,50
2016-11-26T17:06:42.092Z,50
2016-11-26T17:07:55.743Z,50
2016-11-26T17:09:08.838Z,50
2016-11-26T17:10:22.439Z,45
2016-11-26T17:11:36.025Z,45
2016-11-26T17:12:48.883Z,45
2016-11-26T17:14:02.656Z,40
2016-11-26T17:15:16.222Z,45
2016-11-26T17:16:28.743Z,45
2016-11-26T17:17:41.861Z,45
2016-11-26T17:18:55.495Z,215
2016-11-26T17:20:08.646Z,220
2016-11-26T17:21:21.974Z,220
2016-11-26T17:22:35.698Z,205
2016-11-26T17:23:49.339Z,205
2016-11-26T17:25:02.931Z,200
2016-11-26T17:26:16.515Z,200
2016-11-26T17:27:29.054Z,200
2016-11-26T17:28:42.395Z,195
2016-11-26T17:29:56.031Z,205
2016-11-26T17:31:09.125Z,205
2016-11-26T17:32:22.711Z,200
2016-11-26T17:33:35.823Z,195
2016-11-26T17:34:48.995Z,200
2016-11-26T17:36:02.767Z,210
2016-11-26T17:37:15.943Z,210
2016-11-26T17:38:29.611Z,205
2016-11-26T17:39:42.693Z,205
2016-11-26T17:40:56.084Z,205
2016-11-26T17:42:09.687Z,200
2016-11-26T17:43:22.785Z,190
2016-11-26T17:44:36.383Z,190
2016-11-26T17:45:49.464Z,180
2016-11-26T17:47:02.735Z,180
2016-11-26T17:48:16.372Z,185
2016-11-26T17:49:29.639Z,140
2016-11-26T17:50:43.298Z,170
2016-11-26T17:51:56.360Z,180
2016-11-26T17:53:09.979Z,55
2016-11-26T17:54:23.660Z,50